createdAt,value
2019-02-02T00:01:08.203Z,4.00
2019-02-02T00:03:37.851Z,4.00
2019-02-02T00:06:07.535Z,4.00
2019-02-02T00:08:37.186Z,4.00
2019-02-02T00:11:06.930Z,4.00
2019-02-02T00:13:36.556Z,4.10
2019-02-02T00:16:06.725Z,4.10
2019-02-02T00:18:36.241Z,4.10
2019-02-02T00:21:06.648Z,4.10
2019-02-02T00:23:36.311Z,4.20
2019-02-02T00:26:06.307Z,4.20
2019-02-02T00:28:36.119Z,4.20
2019-02-02T00:31:05.941Z,4.30
2019-02-02T00:33:35.367Z,4.30
2019-02-02T00:36:04.997Z,4.30
2019-02-02T00:38:34.474Z,4.40
2019-02-02T00:41:04.168Z,4.40
2019-02-02T00:43:34.057Z,4.40
2019-02-02T00:46:04.041Z,4.40
2019-02-02T00:48:33.584Z,4.50
2019-02-02T00:51:03.087Z,4.50
2019-02-02T00:53:32.789Z,4.50
2019-02-02T00:56:02.425Z,4.50
2019-02-02T00:58:32.057Z,4.50
2019-02-02T01:01:01.678Z,4.50
2019-02-02T01:03:31.346Z,4.50
2019-02-02T01:06:01.172Z,4.50
2019-02-02T01:08:30.757Z,4.50
2019-02-02T01:11:00.289Z,4.50
2019-02-02T01:13:29.827Z,4.50
2019-02-02T01:15:59.317Z,4.50
2019-02-02T01:18:28.839Z,4.50
2019-02-02T01:20:58.457Z,4.50
2019-02-02T01:23:27.914Z,4.50
2019-02-02T01:25:57.326Z,4.50
2019-02-02T01:28:26.786Z,4.50
2019-02-02T01:30:56.379Z,4.60
2019-02-02T01:33:25.832Z,4.50
2019-02-02T01:35:55.437Z,4.50
2019-02-02T01:38:24.923Z,4.50
2019-02-02T01:40:54.373Z,4.50
2019-02-02T01:43:23.835Z,4.50
2019-02-02T01:45:53.380Z,4.50
2019-02-02T01:48:22.828Z,4.50
2019-02-02T01:50:52.437Z,4.50
2019-02-02T01:53:22.042Z,4.40
2019-02-02T01:55:51.455Z,4.50
2019-02-02T01:58:20.906Z,4.50
2019-02-02T02:00:50.434Z,4.40
2019-02-02T02:03:19.871Z,4.40
2019-02-02T02:05:49.400Z,4.40
2019-02-02T02:08:18.968Z,4.40
2019-02-02T02:10:48.571Z,4.40
2019-02-02T02:13:18.062Z,4.40
2019-02-02T02:15:47.658Z,4.40
2019-02-02T02:18:17.239Z,4.30
2019-02-02T02:20:46.666Z,4.30
2019-02-02T02:23:16.100Z,4.30
2019-02-02T02:25:45.631Z,4.30
2019-02-02T02:28:15.090Z,4.30
2019-02-02T02:30:47.276Z,4.30
2019-02-02T02:33:15.768Z,4.30
2019-02-02T02:35:45.340Z,4.30
2019-02-02T02:38:14.804Z,4.30
2019-02-02T02:40:44.286Z,4.30
2019-02-02T02:43:13.799Z,4.30
2019-02-02T02:45:43.252Z,4.30
2019-02-02T02:48:12.840Z,4.30
2019-02-02T02:50:42.259Z,4.30
2019-02-02T02:53:11.723Z,4.30
2019-02-02T02:55:41.255Z,4.30
2019-02-02T02:58:10.744Z,4.30
2019-02-02T03:00:40.186Z,4.40
2019-02-02T03:03:09.741Z,4.40
2019-02-02T03:05:39.199Z,4.40
2019-02-02T03:08:08.907Z,4.40
2019-02-02T03:10:38.487Z,4.40
2019-02-02T03:13:08.100Z,4.40
2019-02-02T03:15:37.553Z,4.40
2019-02-02T03:18:07.233Z,4.40
2019-02-02T03:20:36.675Z,4.40
2019-02-02T03:23:06.197Z,4.40
2019-02-02T03:25:35.673Z,4.40
2019-02-02T03:28:05.137Z,4.40
2019-02-02T03:30:34.734Z,4.40
2019-02-02T03:33:04.451Z,4.40
2019-02-02T03:35:33.884Z,4.40
2019-02-02T03:38:03.319Z,4.40
2019-02-02T03:40:32.798Z,4.40
2019-02-02T03:43:02.301Z,4.40
2019-02-02T03:45:31.801Z,4.40
2019-02-02T03:48:01.261Z,4.40
2019-02-02T03:50:30.852Z,4.40
2019-02-02T03:53:00.506Z,4.40
2019-02-02T03:55:29.959Z,4.40
2019-02-02T03:57:59.380Z,4.40
2019-02-02T04:00:28.932Z,4.40
2019-02-02T04:02:58.367Z,4.40
2019-02-02T04:05:30.270Z,4.40
2019-02-02T04:07:59.865Z,4.40
2019-02-02T04:10:29.381Z,4.40
2019-02-02T04:12:58.942Z,4.40
2019-02-02T04:15:28.470Z,4.40
2019-02-02T04:17:57.929Z,4.40
2019-02-02T04:20:27.619Z,4.40
2019-02-02T04:22:57.196Z,4.30
2019-02-02T04:25:26.822Z,4.30
2019-02-02T04:27:56.390Z,4.30
2019-02-02T04:30:27.745Z,4.30
2019-02-02T04:32:57.378Z,4.30
2019-02-02T04:35:26.955Z,4.30
2019-02-02T04:37:56.399Z,4.30
2019-02-02T04:40:25.937Z,4.30
2019-02-02T04:42:55.395Z,4.30
2019-02-02T04:45:24.922Z,4.30
2019-02-02T04:47:54.442Z,4.20
2019-02-02T04:50:23.947Z,4.20
2019-02-02T04:52:53.402Z,4.20
2019-02-02T04:55:22.939Z,4.20
2019-02-02T04:57:52.381Z,4.20
2019-02-02T05:00:27.240Z,4.20
2019-02-02T05:02:56.901Z,4.20
2019-02-02T05:05:26.575Z,4.20
2019-02-02T05:07:56.039Z,4.20
2019-02-02T05:10:26.651Z,4.20
2019-02-02T05:12:56.171Z,4.20
2019-02-02T05:15:25.629Z,4.10
2019-02-02T05:17:55.070Z,4.10
2019-02-02T05:20:24.485Z,4.10
2019-02-02T05:22:53.963Z,4.10
2019-02-02T05:25:23.559Z,4.10
2019-02-02T05:27:53.734Z,4.10
2019-02-02T05:30:31.846Z,4.10
2019-02-02T05:33:01.365Z,4.00
2019-02-02T05:35:30.813Z,4.00
2019-02-02T05:38:00.373Z,4.00
2019-02-02T05:40:29.918Z,4.00
2019-02-02T05:42:59.472Z,3.90
2019-02-02T05:45:28.943Z,4.00
2019-02-02T05:47:58.380Z,3.90
2019-02-02T05:50:27.847Z,3.90
2019-02-02T05:52:57.252Z,3.90
2019-02-02T05:55:26.693Z,3.90
2019-02-02T05:57:56.107Z,3.90
2019-02-02T06:00:36.745Z,3.90
2019-02-02T06:03:06.490Z,4.00
2019-02-02T06:05:36.059Z,4.00
2019-02-02T06:08:05.899Z,3.90
2019-02-02T06:10:35.328Z,4.00
2019-02-02T06:13:04.881Z,4.00
2019-02-02T06:15:34.338Z,4.00
2019-02-02T06:18:05.114Z,3.90
2019-02-02T06:20:34.580Z,3.90
2019-02-02T06:23:04.139Z,3.90
2019-02-02T06:25:33.591Z,3.90
2019-02-02T06:28:03.097Z,3.90
2019-02-02T06:30:32.697Z,3.90
2019-02-02T06:33:02.233Z,3.90
2019-02-02T06:35:31.677Z,4.00
2019-02-02T06:38:01.132Z,4.00
2019-02-02T06:40:30.659Z,4.00
2019-02-02T06:43:00.250Z,4.00
2019-02-02T06:45:33.308Z,4.00
2019-02-02T06:48:04.584Z,4.00
2019-02-02T06:50:34.176Z,4.00
2019-02-02T06:53:04.270Z,4.00
2019-02-02T06:55:33.801Z,4.10
2019-02-02T06:58:03.408Z,4.00
2019-02-02T07:00:32.826Z,4.00
2019-02-02T07:03:02.393Z,4.10
2019-02-02T07:05:33.956Z,4.10
2019-02-02T07:08:03.378Z,4.10
2019-02-02T07:10:32.891Z,4.10
2019-02-02T07:13:02.438Z,4.20
2019-02-02T07:15:32.824Z,4.10
2019-02-02T07:18:02.384Z,4.20
2019-02-02T07:20:31.902Z,4.20
2019-02-02T07:23:01.562Z,4.20
2019-02-02T07:25:30.973Z,4.20
2019-02-02T07:28:00.405Z,4.20
2019-02-02T07:30:29.992Z,4.10
2019-02-02T07:32:59.742Z,4.20
2019-02-02T07:35:29.299Z,4.10
2019-02-02T07:37:58.780Z,4.20
2019-02-02T07:40:28.210Z,4.10
2019-02-02T07:42:57.742Z,4.10
2019-02-02T07:45:30.838Z,4.10
2019-02-02T07:48:00.311Z,4.10
2019-02-02T07:50:29.819Z,4.20
2019-02-02T07:52:59.317Z,4.20
2019-02-02T07:55:28.823Z,4.20
2019-02-02T07:57:58.269Z,4.20
2019-02-02T08:00:41.396Z,4.20
2019-02-02T08:03:08.679Z,4.20
2019-02-02T08:05:38.292Z,4.20
2019-02-02T08:08:08.082Z,4.20
2019-02-02T08:10:37.663Z,4.20
2019-02-02T08:13:07.412Z,4.20
2019-02-02T08:15:36.945Z,4.20
2019-02-02T08:18:07.090Z,4.20
2019-02-02T08:20:36.656Z,4.10
2019-02-02T08:23:06.508Z,4.20
2019-02-02T08:25:36.385Z,4.20
2019-02-02T08:28:07.704Z,4.20
2019-02-02T08:30:38.058Z,4.20
2019-02-02T08:33:07.922Z,4.20
2019-02-02T08:35:37.603Z,4.20
2019-02-02T08:38:07.491Z,4.20
2019-02-02T08:40:37.005Z,4.30
2019-02-02T08:43:06.627Z,4.30
2019-02-02T08:45:36.214Z,4.30
2019-02-02T08:48:05.808Z,4.30
2019-02-02T08:50:37.219Z,4.40
2019-02-02T08:53:07.460Z,4.40
2019-02-02T08:55:36.957Z,4.40
2019-02-02T08:58:06.542Z,4.50
2019-02-02T09:00:36.628Z,4.50
2019-02-02T09:03:06.481Z,4.50
2019-02-02T09:05:37.783Z,4.50
2019-02-02T09:08:07.543Z,4.50
2019-02-02T09:10:37.058Z,4.50
2019-02-02T09:13:06.576Z,4.50
2019-02-02T09:15:36.256Z,4.50
2019-02-02T09:18:06.673Z,4.50
2019-02-02T09:20:36.259Z,4.60
2019-02-02T09:23:06.775Z,4.60
2019-02-02T09:25:36.354Z,4.60
2019-02-02T09:28:05.952Z,4.60
2019-02-02T09:30:37.410Z,4.60
2019-02-02T09:33:07.493Z,4.70
2019-02-02T09:35:37.080Z,4.70
2019-02-02T09:38:07.040Z,4.70
2019-02-02T09:40:36.581Z,4.70
2019-02-02T09:43:06.945Z,4.70
2019-02-02T09:45:36.542Z,4.70
2019-02-02T09:48:06.352Z,4.70
2019-02-02T09:50:35.912Z,4.70
2019-02-02T09:53:05.572Z,4.70
2019-02-02T09:55:35.273Z,4.70
2019-02-02T09:58:09.006Z,4.70
2019-02-02T10:00:38.563Z,4.70
2019-02-02T10:03:08.113Z,4.70
2019-02-02T10:05:37.613Z,4.70
2019-02-02T10:08:07.385Z,4.70
2019-02-02T10:10:36.936Z,4.70
2019-02-02T10:13:07.101Z,4.70
2019-02-02T10:15:36.785Z,4.70
2019-02-02T10:18:06.768Z,4.70
2019-02-02T10:20:36.232Z,4.70
2019-02-02T10:23:06.103Z,4.80
2019-02-02T10:25:36.008Z,4.70
2019-02-02T10:28:06.265Z,4.70
2019-02-02T10:30:41.354Z,4.70
2019-02-02T10:33:11.023Z,4.70
2019-02-02T10:35:40.595Z,4.70
2019-02-02T10:38:10.394Z,4.70
2019-02-02T10:40:40.044Z,4.70
2019-02-02T10:43:09.796Z,4.70
2019-02-02T10:45:39.475Z,4.60
2019-02-02T10:48:09.343Z,4.60
2019-02-02T10:50:38.924Z,4.60
2019-02-02T10:53:08.485Z,4.60
2019-02-02T10:55:38.141Z,4.60
2019-02-02T10:58:08.108Z,4.60
2019-02-02T11:00:39.998Z,4.60
2019-02-02T11:03:09.580Z,4.60
2019-02-02T11:05:39.402Z,4.60
2019-02-02T11:08:09.326Z,4.60
2019-02-02T11:10:39.299Z,4.60
2019-02-02T11:13:08.888Z,4.60
2019-02-02T11:15:38.431Z,4.60
2019-02-02T11:18:08.904Z,4.60
2019-02-02T11:20:38.901Z,4.60
2019-02-02T11:23:08.577Z,4.60
2019-02-02T11:25:38.278Z,4.50
2019-02-02T11:28:08.013Z,4.50
2019-02-02T11:30:37.575Z,4.50
2019-02-02T11:33:07.330Z,4.50
2019-02-02T11:35:37.038Z,4.60
2019-02-02T11:38:06.718Z,4.50
2019-02-02T11:40:36.828Z,4.50
2019-02-02T11:43:06.578Z,4.50
2019-02-02T11:45:36.224Z,4.50
2019-02-02T11:48:05.887Z,4.50
2019-02-02T11:50:35.579Z,4.50
2019-02-02T11:53:05.697Z,4.50
2019-02-02T11:55:35.243Z,4.50
2019-02-02T11:58:04.950Z,4.60
2019-02-02T12:00:38.609Z,4.60
2019-02-02T12:03:08.070Z,4.60
2019-02-02T12:05:37.935Z,4.70
2019-02-02T12:08:07.644Z,4.70
2019-02-02T12:10:37.417Z,4.70
2019-02-02T12:13:07.102Z,4.80
2019-02-02T12:15:36.814Z,4.80
2019-02-02T12:18:06.728Z,4.80
2019-02-02T12:20:36.329Z,4.90
2019-02-02T12:23:06.132Z,4.90
2019-02-02T12:25:35.860Z,4.90
2019-02-02T12:28:09.092Z,4.90
2019-02-02T12:30:37.626Z,5.00
2019-02-02T12:33:07.393Z,5.00
2019-02-02T12:35:37.150Z,5.00
2019-02-02T12:38:07.065Z,5.00
2019-02-02T12:40:36.883Z,5.00
2019-02-02T12:43:06.584Z,4.90
2019-02-02T12:45:54.557Z,4.90
2019-02-02T12:48:24.281Z,4.90
2019-02-02T12:50:53.864Z,4.90
2019-02-02T12:53:23.407Z,4.90
2019-02-02T12:55:53.132Z,4.80
2019-02-02T12:58:22.802Z,4.90
2019-02-02T13:00:52.334Z,4.80
2019-02-02T13:03:21.881Z,4.80
2019-02-02T13:05:51.382Z,4.80
2019-02-02T13:08:20.853Z,4.80
2019-02-02T13:10:50.372Z,4.80
2019-02-02T13:13:19.792Z,4.80
2019-02-02T13:15:49.250Z,4.90
2019-02-02T13:18:18.711Z,4.90
2019-02-02T13:20:48.192Z,4.90
2019-02-02T13:23:17.686Z,4.90
2019-02-02T13:25:47.217Z,4.90
2019-02-02T13:28:16.681Z,4.90
2019-02-02T13:30:46.168Z,4.90
2019-02-02T13:33:15.634Z,4.90
2019-02-02T13:35:45.303Z,4.90
2019-02-02T13:38:14.851Z,4.90
2019-02-02T13:40:44.317Z,5.00
2019-02-02T13:43:13.840Z,4.90
2019-02-02T13:45:43.347Z,4.90
2019-02-02T13:48:12.799Z,4.90
2019-02-02T13:50:42.300Z,4.90
2019-02-02T13:53:11.903Z,4.80
2019-02-02T13:55:41.354Z,4.80
2019-02-02T13:58:10.895Z,4.80
2019-02-02T14:00:40.523Z,4.70
2019-02-02T14:03:10.033Z,4.70
2019-02-02T14:05:39.623Z,4.70
2019-02-02T14:08:09.250Z,4.60
2019-02-02T14:10:38.902Z,4.60
2019-02-02T14:13:08.408Z,4.50
2019-02-02T14:15:39.381Z,4.50
2019-02-02T14:18:09.300Z,4.50
2019-02-02T14:20:38.747Z,4.40
2019-02-02T14:23:08.185Z,4.40
2019-02-02T14:25:37.635Z,4.40
2019-02-02T14:28:07.241Z,4.40
2019-02-02T14:30:36.765Z,4.30
2019-02-02T14:33:13.616Z,4.30
2019-02-02T14:35:37.646Z,4.30
2019-02-02T14:38:07.062Z,4.30
2019-02-02T14:40:36.519Z,4.20
2019-02-02T14:43:06.219Z,4.20
2019-02-02T14:45:35.684Z,4.10
2019-02-02T14:48:05.373Z,4.10
2019-02-02T14:50:34.820Z,4.10
2019-02-02T14:53:04.786Z,4.00
2019-02-02T14:55:34.353Z,4.00
2019-02-02T14:58:04.841Z,3.90
2019-02-02T15:00:34.459Z,3.90
2019-02-02T15:03:04.135Z,3.90
2019-02-02T15:05:42.504Z,3.80
2019-02-02T15:08:05.000Z,3.80
2019-02-02T15:10:34.463Z,3.80
2019-02-02T15:13:04.135Z,3.80
2019-02-02T15:15:33.722Z,3.80
2019-02-02T15:18:03.186Z,3.70
2019-02-02T15:20:35.660Z,3.70
2019-02-02T15:23:05.721Z,3.70
2019-02-02T15:25:35.430Z,3.70
2019-02-02T15:28:05.002Z,3.70
2019-02-02T15:30:38.614Z,3.60
2019-02-02T15:33:08.226Z,3.60
2019-02-02T15:35:37.806Z,3.60
2019-02-02T15:38:07.320Z,3.60
2019-02-02T15:40:36.789Z,3.60
2019-02-02T15:43:06.502Z,3.60
2019-02-02T15:45:36.082Z,3.60
2019-02-02T15:48:05.953Z,3.60
2019-02-02T15:50:35.387Z,3.60
2019-02-02T15:53:04.979Z,3.60
2019-02-02T15:55:34.459Z,3.60
2019-02-02T15:58:04.046Z,3.60
2019-02-02T16:00:36.828Z,3.60
2019-02-02T16:03:06.921Z,3.60
2019-02-02T16:05:37.052Z,3.60
2019-02-02T16:08:10.921Z,3.50
2019-02-02T16:10:40.532Z,3.50
2019-02-02T16:13:10.037Z,3.50
2019-02-02T16:15:39.472Z,3.50
2019-02-02T16:18:09.106Z,3.50
2019-02-02T16:20:43.995Z,3.50
2019-02-02T16:23:13.585Z,3.50
2019-02-02T16:25:43.217Z,3.50
2019-02-02T16:28:13.017Z,3.50
2019-02-02T16:30:42.532Z,3.50
2019-02-02T16:33:12.193Z,3.50
2019-02-02T16:35:41.810Z,3.50
2019-02-02T16:38:11.880Z,3.50
2019-02-02T16:40:41.488Z,3.50
2019-02-02T16:43:11.323Z,3.50
2019-02-02T16:45:40.900Z,3.50
2019-02-02T16:48:10.425Z,3.50
2019-02-02T16:50:39.907Z,3.50
2019-02-02T16:53:09.453Z,3.50
2019-02-02T16:55:38.905Z,3.50
2019-02-02T16:58:08.646Z,3.50
2019-02-02T17:00:38.950Z,3.50
2019-02-02T17:03:08.457Z,3.60
2019-02-02T17:05:38.088Z,3.60
2019-02-02T17:08:07.873Z,3.60
2019-02-02T17:10:38.044Z,3.60
2019-02-02T17:13:08.135Z,3.60
2019-02-02T17:15:37.736Z,3.60
2019-02-02T17:18:07.671Z,3.60
2019-02-02T17:20:40.439Z,3.60
2019-02-02T17:23:10.125Z,3.60
2019-02-02T17:25:39.822Z,3.60
2019-02-02T17:28:09.438Z,3.60
2019-02-02T17:30:39.036Z,3.60
2019-02-02T17:33:12.216Z,3.60
2019-02-02T17:35:41.829Z,3.60
2019-02-02T17:38:11.532Z,3.60
2019-02-02T17:40:41.001Z,3.60
2019-02-02T17:43:10.434Z,3.60
2019-02-02T17:45:39.970Z,3.60
2019-02-02T17:48:09.772Z,3.60
2019-02-02T17:50:39.669Z,3.60
2019-02-02T17:53:10.798Z,3.70
2019-02-02T17:55:40.280Z,3.70
2019-02-02T17:58:09.739Z,3.70
2019-02-02T18:00:43.565Z,3.70
2019-02-02T18:03:13.073Z,3.70
2019-02-02T18:05:42.588Z,3.70
2019-02-02T18:08:12.151Z,3.70
2019-02-02T18:10:41.716Z,3.80
2019-02-02T18:13:11.310Z,3.80
2019-02-02T18:15:40.854Z,3.80
2019-02-02T18:18:10.793Z,3.80
2019-02-02T18:20:40.242Z,3.80
2019-02-02T18:23:09.701Z,3.80
2019-02-02T18:25:39.206Z,3.80
2019-02-02T18:28:08.710Z,3.80
2019-02-02T18:30:38.261Z,3.80
2019-02-02T18:33:07.754Z,3.80
2019-02-02T18:35:37.301Z,3.80
2019-02-02T18:38:06.992Z,3.90
2019-02-02T18:40:36.509Z,3.90
2019-02-02T18:43:06.139Z,3.90
2019-02-02T18:45:35.677Z,3.90
2019-02-02T18:48:05.639Z,3.90
2019-02-02T18:50:35.182Z,4.00
2019-02-02T18:53:04.821Z,4.00
2019-02-02T18:55:48.538Z,4.00
2019-02-02T18:58:17.974Z,4.00
2019-02-02T19:00:47.510Z,4.00
2019-02-02T19:03:16.983Z,4.10
2019-02-02T19:05:46.476Z,4.10
2019-02-02T19:08:15.928Z,4.10
2019-02-02T19:10:45.483Z,4.10
2019-02-02T19:13:15.062Z,4.10
2019-02-02T19:15:44.489Z,4.10
2019-02-02T19:18:14.010Z,4.10
2019-02-02T19:20:43.464Z,4.10
2019-02-02T19:23:24.263Z,4.10
2019-02-02T19:25:44.127Z,4.20
2019-02-02T19:28:13.565Z,4.20
2019-02-02T19:30:43.017Z,4.20
2019-02-02T19:33:12.542Z,4.20
2019-02-02T19:35:41.980Z,4.20
2019-02-02T19:38:11.495Z,4.20
2019-02-02T19:40:40.981Z,4.20
2019-02-02T19:43:10.490Z,4.20
2019-02-02T19:45:40.020Z,4.20
2019-02-02T19:48:09.690Z,4.20
2019-02-02T19:50:39.171Z,4.20
2019-02-02T19:53:08.841Z,4.20
2019-02-02T19:55:38.238Z,4.20
2019-02-02T19:58:07.805Z,4.30
2019-02-02T20:00:37.402Z,4.30
2019-02-02T20:03:06.949Z,4.30
2019-02-02T20:05:36.638Z,4.20
2019-02-02T20:08:06.639Z,4.20
2019-02-02T20:10:36.217Z,4.20
2019-02-02T20:13:06.184Z,4.20
2019-02-02T20:15:35.654Z,4.20
2019-02-02T20:18:10.029Z,4.20
2019-02-02T20:20:36.523Z,4.20
2019-02-02T20:23:06.444Z,4.20
2019-02-02T20:25:35.889Z,4.20
2019-02-02T20:28:05.517Z,4.20
2019-02-02T20:30:35.204Z,4.20
2019-02-02T20:33:05.259Z,4.20
2019-02-02T20:35:41.973Z,4.20
2019-02-02T20:38:06.265Z,4.10
2019-02-02T20:40:35.723Z,4.10
2019-02-02T20:43:05.443Z,4.10
2019-02-02T20:45:38.305Z,4.10
2019-02-02T20:48:07.750Z,4.10
2019-02-02T20:50:37.317Z,4.00
2019-02-02T20:53:07.004Z,4.00
2019-02-02T20:55:40.949Z,4.00
2019-02-02T20:58:10.583Z,4.00
2019-02-02T21:00:40.683Z,4.00
2019-02-02T21:03:10.209Z,4.00
2019-02-02T21:05:51.623Z,4.10
2019-02-02T21:08:11.037Z,4.10
2019-02-02T21:10:40.495Z,4.10
2019-02-02T21:13:10.112Z,4.10
2019-02-02T21:15:39.565Z,4.10
2019-02-02T21:18:11.844Z,4.10
2019-02-02T21:20:40.456Z,4.10
2019-02-02T21:23:09.878Z,4.00
2019-02-02T21:25:39.332Z,4.00
2019-02-02T21:28:08.958Z,4.00
2019-02-02T21:30:38.576Z,4.00
2019-02-02T21:33:08.522Z,4.00
2019-02-02T21:35:37.793Z,4.00
2019-02-02T21:38:07.485Z,4.00
2019-02-02T21:40:37.058Z,3.90
2019-02-02T21:43:07.611Z,3.90
2019-02-02T21:45:37.520Z,4.00
2019-02-02T21:48:07.208Z,4.00
2019-02-02T21:50:36.705Z,4.00
2019-02-02T21:53:06.602Z,4.00
2019-02-02T21:55:36.069Z,4.00
2019-02-02T21:58:06.539Z,4.00
2019-02-02T22:00:41.826Z,4.00
2019-02-02T22:03:11.607Z,4.00
2019-02-02T22:05:41.058Z,4.00
2019-02-02T22:08:11.267Z,4.00
2019-02-02T22:10:41.115Z,4.00
2019-02-02T22:13:10.832Z,4.00
2019-02-02T22:15:40.439Z,4.00
2019-02-02T22:18:10.039Z,4.00
2019-02-02T22:20:39.720Z,4.00
2019-02-02T22:23:09.547Z,3.90
2019-02-02T22:25:39.133Z,3.90
2019-02-02T22:28:08.755Z,3.80
2019-02-02T22:30:38.980Z,3.80
2019-02-02T22:33:08.431Z,3.80
2019-02-02T22:35:37.925Z,3.80
2019-02-02T22:38:07.663Z,3.70
2019-02-02T22:40:37.309Z,3.80
2019-02-02T22:43:07.066Z,3.70
2019-02-02T22:45:36.574Z,3.70
2019-02-02T22:48:06.679Z,3.70
2019-02-02T22:50:36.342Z,3.70
2019-02-02T22:53:06.239Z,3.70
2019-02-02T22:55:35.788Z,3.60
2019-02-02T22:58:05.637Z,3.60
2019-02-02T23:00:50.019Z,3.60
2019-02-02T23:03:33.396Z,3.60
2019-02-02T23:06:38.544Z,3.60
2019-02-02T23:09:37.953Z,3.60
2019-02-02T23:12:31.687Z,3.50
2019-02-02T23:15:31.183Z,3.50
2019-02-02T23:18:00.655Z,3.50
2019-02-02T23:20:30.140Z,3.50
2019-02-02T23:22:59.604Z,3.40
2019-02-02T23:25:29.088Z,3.40
2019-02-02T23:27:59.135Z,3.40
2019-02-02T23:30:28.808Z,3.40
2019-02-02T23:32:58.336Z,3.40
2019-02-02T23:35:27.871Z,3.40
2019-02-02T23:37:57.412Z,3.40
2019-02-02T23:40:26.943Z,3.40
2019-02-02T23:42:56.295Z,3.40
2019-02-02T23:45:26.166Z,3.40
2019-02-02T23:47:55.671Z,3.40
2019-02-02T23:50:25.088Z,3.40
2019-02-02T23:52:54.542Z,3.50
2019-02-02T23:55:24.022Z,3.50
2019-02-02T23:57:53.437Z,3.50
